createdAt,value
2022-08-16T06:55:43.263Z,14.93
2022-08-16T06:58:22.389Z,14.03
2022-08-16T07:00:49.874Z,12.90
2022-08-16T07:03:27.731Z,12.40
2022-08-16T07:05:59.126Z,12.33
2022-08-16T07:08:27.317Z,13.33
2022-08-16T07:10:54.537Z,11.73
2022-08-16T07:13:43.783Z,14.50
2022-08-16T07:16:15.536Z,12.53
2022-08-16T07:19:01.332Z,11.27
2022-08-16T07:21:46.368Z,12.67
2022-08-16T07:24:30.482Z,10.93
2022-08-16T07:26:59.051Z,11.93
2022-08-16T07:29:31.727Z,13.13
2022-08-16T07:31:59.513Z,11.87
2022-08-16T07:34:35.176Z,12.17
2022-08-16T07:37:07.092Z,12.33
2022-08-16T07:39:34.408Z,11.20
2022-08-16T07:42:20.064Z,11.37
2022-08-16T07:44:52.738Z,11.03
2022-08-16T07:47:19.627Z,12.67
2022-08-16T07:49:57.847Z,13.40
2022-08-16T07:52:29.650Z,11.87
2022-08-16T07:54:57.330Z,12.57
2022-08-16T07:57:24.572Z,13.20
2022-08-16T07:59:51.494Z,12.87
2022-08-16T08:02:20.476Z,25.20
2022-08-16T08:04:48.369Z,31.20
2022-08-16T08:07:16.509Z,18.57
2022-08-16T08:09:44.033Z,15.90
2022-08-16T08:12:32.254Z,14.83
2022-08-16T08:14:59.527Z,12.70
2022-08-16T08:17:43.291Z,12.83
2022-08-16T08:20:26.251Z,11.83
2022-08-16T08:23:01.078Z,11.90
2022-08-16T08:25:55.074Z,12.03
2022-08-16T08:28:17.533Z,11.33
2022-08-16T08:30:51.779Z,11.43
2022-08-16T08:33:27.644Z,10.27
2022-08-16T08:36:00.891Z,12.70
2022-08-16T08:38:44.224Z,10.40
2022-08-16T08:41:13.477Z,10.60
2022-08-16T08:43:41.990Z,9.77
2022-08-16T08:46:18.352Z,10.93
2022-08-16T08:48:59.557Z,10.27
2022-08-16T08:51:35.947Z,10.37
2022-08-16T08:54:06.926Z,13.30
2022-08-16T08:56:45.525Z,10.43
2022-08-16T08:59:20.323Z,9.50
2022-08-16T09:01:56.299Z,9.23
2022-08-16T09:04:24.852Z,9.53
2022-08-16T09:06:53.543Z,10.73
2022-08-16T09:09:20.881Z,9.37
2022-08-16T09:11:53.343Z,9.97
2022-08-16T09:14:25.275Z,9.77
2022-08-16T09:17:04.111Z,8.80
2022-08-16T09:19:40.840Z,8.40
2022-08-16T09:22:20.995Z,9.87
2022-08-16T09:24:53.328Z,8.33
2022-08-16T09:27:23.475Z,8.23
2022-08-16T09:29:59.797Z,8.27
2022-08-16T09:32:30.748Z,8.50
2022-08-16T09:34:58.978Z,9.37
2022-08-16T09:37:30.495Z,10.80
2022-08-16T09:40:31.557Z,9.13
2022-08-16T09:42:59.116Z,7.77
2022-08-16T09:45:27.917Z,8.03
2022-08-16T09:47:57.148Z,8.57
2022-08-16T09:50:26.845Z,8.50
2022-08-16T09:53:05.440Z,9.17
2022-08-16T09:55:33.855Z,9.30
2022-08-16T09:58:14.907Z,9.10
2022-08-16T10:00:57.981Z,8.77
2022-08-16T10:03:29.627Z,9.37
2022-08-16T10:05:57.564Z,8.03
2022-08-16T10:08:26.069Z,8.37
2022-08-16T10:11:24.137Z,6.70
2022-08-16T10:13:51.494Z,9.07
2022-08-16T10:16:21.860Z,7.67
2022-08-16T10:19:00.640Z,6.63
2022-08-16T10:21:33.705Z,8.60
2022-08-16T10:24:02.503Z,7.80
2022-08-16T10:27:18.694Z,7.83
2022-08-16T10:29:20.108Z,9.43
2022-08-16T10:31:53.817Z,8.63
2022-08-16T10:34:30.861Z,6.90
2022-08-16T10:37:02.300Z,6.65
2022-08-16T10:39:41.325Z,6.03
2022-08-16T10:42:10.308Z,7.20
2022-08-16T10:44:40.100Z,7.93
2022-08-16T10:47:09.978Z,7.18
2022-08-16T10:49:39.608Z,6.95
2022-08-16T10:52:18.422Z,6.40
2022-08-16T10:57:33.187Z,7.15
2022-08-16T11:00:04.701Z,6.28
2022-08-16T11:03:00.114Z,6.10
2022-08-16T11:05:18.637Z,6.20
2022-08-16T11:07:52.163Z,7.53
2022-08-16T11:17:02.069Z,6.50
2022-08-16T11:19:03.715Z,7.75
2022-08-16T11:21:33.301Z,7.55
2022-08-16T11:24:01.886Z,8.90
2022-08-16T11:26:29.739Z,6.45
2022-08-16T11:29:14.271Z,5.95
2022-08-16T11:31:45.877Z,6.60
2022-08-16T11:34:20.890Z,6.78
2022-08-16T11:36:53.601Z,6.25
2022-08-16T11:39:31.852Z,7.43
2022-08-16T11:42:01.066Z,6.78
2022-08-16T11:44:52.875Z,6.53
2022-08-16T11:47:15.742Z,6.65
2022-08-16T11:49:42.329Z,6.78
2022-08-16T11:52:08.988Z,7.55
2022-08-16T11:54:36.707Z,6.20
2022-08-16T11:57:09.120Z,6.97
2022-08-16T11:59:39.887Z,8.90
2022-08-16T12:02:32.441Z,8.18
2022-08-16T12:04:54.490Z,7.50
2022-08-16T12:07:23.875Z,7.43
2022-08-16T12:09:53.181Z,6.75
2022-08-16T12:12:20.678Z,6.72
2022-08-16T12:14:59.252Z,6.68
2022-08-16T12:17:32.350Z,6.85
2022-08-16T12:20:18.801Z,6.57
2022-08-16T12:22:46.999Z,6.47
2022-08-16T12:25:16.719Z,6.78
2022-08-16T12:27:44.468Z,6.50
2022-08-16T12:30:26.356Z,6.47
2022-08-16T12:32:57.507Z,6.65
2022-08-16T12:35:26.753Z,7.47
2022-08-16T12:37:56.771Z,7.80
2022-08-16T12:56:41.403Z,6.38
2022-08-16T12:59:13.199Z,6.07
2022-08-16T13:01:47.724Z,7.72
2022-08-16T13:04:20.543Z,7.18
2022-08-16T13:06:51.985Z,5.10
2022-08-16T13:09:26.611Z,4.80
2022-08-16T13:12:01.650Z,7.78
2022-08-16T13:14:35.057Z,5.13
2022-08-16T13:17:06.553Z,8.85
2022-08-16T13:19:56.382Z,6.32
2022-08-16T13:22:22.013Z,7.80
2022-08-16T13:24:50.542Z,8.35
2022-08-16T13:27:17.974Z,5.63
2022-08-16T13:29:45.087Z,8.35
2022-08-16T13:32:39.774Z,5.10
2022-08-16T13:35:05.339Z,5.78
2022-08-16T13:37:32.578Z,4.55
2022-08-16T13:40:05.007Z,5.20
2022-08-16T13:42:33.057Z,5.43
2022-08-16T13:45:10.905Z,5.25
2022-08-16T13:47:42.659Z,4.50
2022-08-16T13:50:10.921Z,4.70
2022-08-16T13:52:40.009Z,4.63
2022-08-16T13:55:18.139Z,5.53
2022-08-16T13:57:53.695Z,5.75
2022-08-16T14:00:31.791Z,6.68
2022-08-16T14:02:59.170Z,4.80
2022-08-16T14:05:27.245Z,5.28
2022-08-16T14:07:54.515Z,6.40
2022-08-16T14:10:21.318Z,4.32
2022-08-16T14:12:48.443Z,4.75
2022-08-16T14:15:15.931Z,4.70
2022-08-16T14:18:15.968Z,4.18
2022-08-16T14:20:29.947Z,6.20
2022-08-16T14:22:56.916Z,4.28
2022-08-16T14:25:25.224Z,5.45
2022-08-16T14:27:54.417Z,5.10
2022-08-16T14:30:24.900Z,4.47
2022-08-16T14:32:52.502Z,6.28
2022-08-16T14:35:36.686Z,4.35
2022-08-16T14:38:13.470Z,4.82
2022-08-16T14:40:47.132Z,5.43
2022-08-16T14:43:19.191Z,4.78
2022-08-16T14:45:47.025Z,5.35
2022-08-16T14:48:25.141Z,6.00
2022-08-16T14:50:53.445Z,5.05
2022-08-16T14:53:20.416Z,3.85
2022-08-16T14:55:48.519Z,3.67
2022-08-16T14:58:19.643Z,4.78
2022-08-16T15:00:47.747Z,4.35
2022-08-16T15:03:18.327Z,4.28
2022-08-16T15:05:47.902Z,4.75
2022-08-16T15:08:17.091Z,4.55
2022-08-16T15:10:47.252Z,4.63
2022-08-16T15:13:15.386Z,4.00
2022-08-16T15:15:43.767Z,4.28
2022-08-16T15:18:12.093Z,6.82
2022-08-16T15:20:41.083Z,5.40
2022-08-16T15:23:09.962Z,6.35
2022-08-16T15:25:47.211Z,4.75
2022-08-16T15:28:31.961Z,4.78
2022-08-16T15:31:04.551Z,4.43
2022-08-16T15:33:35.564Z,5.05
2022-08-16T15:36:09.451Z,4.93
2022-08-16T15:39:05.538Z,4.45
2022-08-16T15:41:42.922Z,4.30
2022-08-16T15:44:17.838Z,4.40
2022-08-16T15:46:54.553Z,4.32
2022-08-16T15:49:25.312Z,4.32
2022-08-16T15:52:10.367Z,6.03
2022-08-16T15:54:51.419Z,4.60
2022-08-16T15:57:22.196Z,4.35
2022-08-16T15:59:55.542Z,4.00
2022-08-16T16:02:29.810Z,4.22
2022-08-16T16:05:00.953Z,4.93
2022-08-16T16:07:29.983Z,4.43
2022-08-16T16:09:58.325Z,3.97
2022-08-16T16:15:17.475Z,4.53
2022-08-16T16:17:44.116Z,5.03
2022-08-16T16:20:18.398Z,4.75
2022-08-16T16:22:46.296Z,3.95
2022-08-16T16:25:15.797Z,4.20
2022-08-16T16:27:43.918Z,4.05
2022-08-16T16:30:37.235Z,4.53
2022-08-16T16:33:01.944Z,4.32
2022-08-16T16:35:32.765Z,3.65
2022-08-16T16:38:00.911Z,3.78
2022-08-16T16:40:32.263Z,4.20
2022-08-16T16:42:59.902Z,4.00
2022-08-16T16:45:34.561Z,3.78
2022-08-16T16:48:12.111Z,7.75
2022-08-16T16:50:45.312Z,3.85
2022-08-16T16:53:17.725Z,5.93
2022-08-16T16:55:51.553Z,4.22
2022-08-16T16:58:38.065Z,5.20
2022-08-16T17:01:05.599Z,3.83
2022-08-16T17:03:35.404Z,3.72
2022-08-16T17:06:08.897Z,4.43
2022-08-16T17:08:37.840Z,4.93
2022-08-16T17:11:08.098Z,4.25
2022-08-16T17:13:34.856Z,3.88
2022-08-16T17:16:01.515Z,4.53
2022-08-16T17:19:14.839Z,3.40
2022-08-16T17:21:17.342Z,3.85
2022-08-16T17:23:58.490Z,4.05
2022-08-16T17:26:29.775Z,3.92
2022-08-16T17:28:59.963Z,3.78
2022-08-16T17:31:38.440Z,3.70
2022-08-16T17:34:28.553Z,4.32
2022-08-16T17:36:57.154Z,3.33
2022-08-16T17:39:28.800Z,4.18
2022-08-16T17:41:57.102Z,6.57
2022-08-16T17:44:23.710Z,4.15
2022-08-16T17:46:51.353Z,3.58
2022-08-16T17:49:20.067Z,3.70
2022-08-16T17:51:46.716Z,3.97
2022-08-16T17:54:18.339Z,6.03
2022-08-16T17:56:58.460Z,3.65
2022-08-16T17:59:27.239Z,3.45
2022-08-16T18:01:54.100Z,4.03
2022-08-16T18:04:48.800Z,4.40
2022-08-16T18:07:08.343Z,4.20
2022-08-16T18:09:36.842Z,4.10
2022-08-16T18:12:20.516Z,3.88
2022-08-16T18:15:00.210Z,6.07
2022-08-16T18:17:27.051Z,3.58
2022-08-16T18:19:53.690Z,4.10
2022-08-16T18:22:30.428Z,3.80
2022-08-16T18:24:57.841Z,3.88
2022-08-16T18:27:26.164Z,4.40
2022-08-16T18:29:54.153Z,5.37
2022-08-16T18:32:22.155Z,4.72
2022-08-16T18:34:51.504Z,6.53
2022-08-16T18:37:18.122Z,4.37
2022-08-16T18:39:44.798Z,7.43
2022-08-16T18:42:13.966Z,3.80
2022-08-16T18:44:42.926Z,4.20
2022-08-16T18:47:10.001Z,4.33
2022-08-16T18:49:37.115Z,5.37
2022-08-16T18:52:04.196Z,5.57
2022-08-16T18:54:32.694Z,5.53
2022-08-16T18:56:59.352Z,5.20
2022-08-16T18:59:28.283Z,5.13
2022-08-16T19:01:56.906Z,5.67
2022-08-16T19:04:55.862Z,5.20
2022-08-16T19:07:19.173Z,5.57
2022-08-16T19:09:45.815Z,5.10
2022-08-16T19:12:16.129Z,5.40
2022-08-16T19:14:44.185Z,5.90
2022-08-16T19:17:11.342Z,5.53
2022-08-16T19:19:37.997Z,4.63
2022-08-16T19:22:06.163Z,6.23
2022-08-16T19:24:32.997Z,5.90
2022-08-16T19:26:59.701Z,6.73
2022-08-16T19:29:28.757Z,5.97
2022-08-16T19:31:55.395Z,5.67
2022-08-16T19:34:22.032Z,7.17
2022-08-16T19:36:48.829Z,5.73
2022-08-16T19:39:16.014Z,6.10
2022-08-16T19:41:52.049Z,6.80
2022-08-16T19:44:22.323Z,8.23
2022-08-16T19:46:49.529Z,8.37
2022-08-16T19:49:17.015Z,7.07
2022-08-16T19:51:45.087Z,6.93
2022-08-16T19:54:11.720Z,8.50
2022-08-16T19:56:38.447Z,6.67
2022-08-16T19:59:22.009Z,12.37
2022-08-16T20:01:51.872Z,11.10
2022-08-16T20:04:19.438Z,12.83
2022-08-16T20:06:47.156Z,9.43
2022-08-16T20:09:15.067Z,7.97
2022-08-16T20:11:45.412Z,6.30
2022-08-16T20:14:24.148Z,7.50
2022-08-16T20:16:53.856Z,7.73
2022-08-16T20:19:20.538Z,14.57
2022-08-16T20:21:47.193Z,8.90
2022-08-16T20:24:32.786Z,8.03
2022-08-16T20:27:01.216Z,9.73
2022-08-16T20:29:28.813Z,11.77
2022-08-16T20:31:56.166Z,10.70
2022-08-16T20:34:22.780Z,9.47
2022-08-16T20:36:49.361Z,8.63
2022-08-16T20:39:16.293Z,8.30
2022-08-16T20:41:43.915Z,8.37
2022-08-16T20:44:12.075Z,8.27
2022-08-16T20:46:39.114Z,10.70
2022-08-16T20:49:08.872Z,8.20
2022-08-16T20:51:46.473Z,9.40
2022-08-16T20:54:14.687Z,9.53
2022-08-16T20:56:41.443Z,9.47
2022-08-16T20:59:08.026Z,9.03
2022-08-16T21:01:45.914Z,8.33
2022-08-16T21:04:16.600Z,9.47
2022-08-16T21:06:52.987Z,9.00
2022-08-16T21:09:22.431Z,11.43
2022-08-16T21:11:51.572Z,9.47
2022-08-16T21:14:18.160Z,10.00
2022-08-16T21:16:44.860Z,8.93
2022-08-16T21:19:11.478Z,9.00
2022-08-16T21:21:38.105Z,8.07
2022-08-16T21:24:04.941Z,11.03
2022-08-16T21:26:31.653Z,10.37
2022-08-16T21:28:58.982Z,9.40
2022-08-16T21:31:25.584Z,8.27
2022-08-16T21:33:55.301Z,9.50
2022-08-16T21:36:35.840Z,11.47
2022-08-16T21:39:05.687Z,8.60
2022-08-16T21:41:32.703Z,8.60
2022-08-16T21:43:59.297Z,9.43
